Time;durP1;ratioP1;P1;durP2;ratioP2;P2;SDS_P1;SDS_P2;PMS_P1;PMS_P2;Temp;Humidity;BMP_temperature;BMP_pressure;BME280_temperature;BME280_humidity;BME280_pressure;Samples;Min_cycle;Max_cycle;Signal;HPM_P1;HPM_P2
2023/01/06 00:00:31;;;;;;;2.83;2.02;;;;;;;6.32;96.39;98385.87;1747646;82;21120;-75
2023/01/06 00:02:58;;;;;;;2.42;1.75;;;;;;;6.39;95.97;98392.59;1739376;81;21002;-76
2023/01/06 00:05:24;;;;;;;2.75;1.47;;;;;;;6.36;95.66;98397.72;1720828;83;21567;-76
2023/01/06 00:07:51;;;;;;;2.83;1.80;;;;;;;6.25;96.05;98397.61;1720060;83;21540;-74
2023/01/06 00:10:18;;;;;;;2.50;2.00;;;;;;;6.30;96.20;98417.70;1687977;83;21252;-76
2023/01/06 00:12:48;;;;;;;3.58;1.98;;;;;;;6.35;95.96;98425.08;1719885;83;21055;-77
2023/01/06 00:15:15;;;;;;;1.77;1.62;;;;;;;6.27;96.13;98411.95;1689815;84;21055;-75
2023/01/06 00:17:42;;;;;;;1.82;1.47;;;;;;;6.17;96.26;98420.58;1722798;82;21006;-76
2023/01/06 00:20:10;;;;;;;4.35;1.85;;;;;;;6.18;96.52;98414.29;1720242;81;21093;-73
2023/01/06 00:22:39;;;;;;;3.95;1.77;;;;;;;6.16;96.80;98418.44;1729151;82;21390;-75
2023/01/06 00:25:09;;;;;;;2.77;1.60;;;;;;;6.08;97.21;98423.26;1710623;82;21033;-75
2023/01/06 00:27:35;;;;;;;1.98;1.60;;;;;;;6.10;97.57;98429.18;1706296;82;21674;-78
2023/01/06 00:30:02;;;;;;;3.33;1.45;;;;;;;6.17;97.05;98427.17;1697692;83;21033;-74
2023/01/06 00:32:29;;;;;;;2.45;1.40;;;;;;;6.17;97.55;98431.13;1719364;82;21064;-78
2023/01/06 00:34:57;;;;;;;2.42;1.30;;;;;;;6.15;97.70;98436.56;1698325;82;21026;-77
2023/01/06 00:37:24;;;;;;;1.47;1.22;;;;;;;6.16;97.74;98442.17;1711109;82;21052;-77
2023/01/06 00:39:50;;;;;;;2.55;1.40;;;;;;;6.20;96.75;98439.99;1729069;82;21569;-78
2023/01/06 00:42:17;;;;;;;1.67;1.30;;;;;;;6.15;96.91;98436.56;1719392;82;21568;-78
2023/01/06 00:44:44;;;;;;;1.52;0.90;;;;;;;6.06;97.20;98443.67;1714084;82;21100;-78
2023/01/06 00:47:10;;;;;;;1.35;1.10;;;;;;;6.05;97.02;98451.27;1721298;83;21456;-79
2023/01/06 00:49:38;;;;;;;1.47;1.30;;;;;;;6.10;97.09;98467.41;1721107;82;21010;-78
2023/01/06 00:52:05;;;;;;;2.05;1.47;;;;;;;6.06;97.26;98456.85;1723042;82;20993;-77
2023/01/06 00:54:32;;;;;;;1.90;1.27;;;;;;;6.00;97.44;98460.17;1720551;83;21021;-77
2023/01/06 00:56:58;;;;;;;1.17;1.07;;;;;;;6.02;97.38;98459.51;1720946;83;21073;-78
2023/01/06 00:59:25;;;;;;;1.72;1.30;;;;;;;6.10;97.15;98456.02;1715521;83;21359;-79
2023/01/06 01:01:55;;;;;;;3.67;1.72;;;;;;;6.01;96.72;98468.93;1715880;82;21124;-78
2023/01/06 01:04:22;;;;;;;2.35;1.45;;;;;;;5.94;97.57;98468.73;1750024;82;21096;-77
2023/01/06 01:06:49;;;;;;;1.65;1.47;;;;;;;6.05;97.85;98476.82;1752102;80;21045;-78
2023/01/06 01:09:21;;;;;;;2.12;1.55;;;;;;;6.13;97.76;98486.52;1751147;82;21518;-80
2023/01/06 01:14:36;;;;;;;3.27;1.50;;;;;;;6.11;98.49;98498.55;1740488;82;21544;-76
2023/01/06 01:17:02;;;;;;;1.98;1.52;;;;;;;6.18;98.07;98508.75;1728195;82;20979;-76
2023/01/06 01:19:29;;;;;;;1.92;1.42;;;;;;;6.17;97.21;98516.83;1751478;82;21050;-78
2023/01/06 01:21:55;;;;;;;2.15;1.67;;;;;;;6.06;96.56;98522.77;1751175;82;21052;-74
2023/01/06 01:24:22;;;;;;;2.17;1.87;;;;;;;5.90;95.67;98522.79;1751738;80;21110;-76
2023/01/06 01:26:49;;;;;;;2.00;1.80;;;;;;;5.78;93.57;98534.18;1744117;82;21084;-76
2023/01/06 01:29:16;;;;;;;3.00;2.35;;;;;;;5.56;92.83;98542.75;1721860;82;21053;-73
2023/01/06 01:31:44;;;;;;;3.10;2.80;;;;;;;5.28;92.71;98550.48;1742248;82;21112;-76
2023/01/06 01:34:12;;;;;;;2.98;2.42;;;;;;;5.07;93.35;98561.98;1722263;82;21038;-76
2023/01/06 01:36:40;;;;;;;3.02;2.47;;;;;;;4.98;92.51;98562.44;1751824;82;21122;-80
2023/01/06 01:39:07;;;;;;;3.15;2.85;;;;;;;4.93;92.69;98561.62;1717252;83;21024;-75
2023/01/06 01:41:34;;;;;;;3.75;3.08;;;;;;;4.78;92.43;98558.45;1717425;83;21049;-78
2023/01/06 01:44:21;;;;;;;3.45;3.12;;;;;;;4.58;92.97;98578.45;1717786;83;21006;-77
2023/01/06 01:46:48;;;;;;;4.80;3.37;;;;;;;4.48;92.59;98572.00;1699378;83;21119;-76
2023/01/06 01:49:22;;;;;;;5.97;4.17;;;;;;;4.42;92.48;98585.75;1750296;80;21826;-73
2023/01/06 01:51:48;;;;;;;4.25;3.70;;;;;;;4.26;92.20;98583.87;1725704;80;21024;-73
2023/01/06 01:54:22;;;;;;;3.62;3.05;;;;;;;4.06;92.17;98596.41;1743123;82;20970;-73
2023/01/06 01:56:53;;;;;;;3.62;2.95;;;;;;;3.95;92.06;98607.17;1752527;80;21298;-75
2023/01/06 01:59:24;;;;;;;4.25;3.40;;;;;;;3.91;92.33;98605.34;1735726;81;21319;-75
2023/01/06 02:01:50;;;;;;;4.80;3.55;;;;;;;3.82;92.64;98613.31;1751228;82;21105;-75
2023/01/06 02:04:17;;;;;;;5.53;3.80;;;;;;;3.72;92.98;98628.66;1733537;82;21075;-75
2023/01/06 02:06:45;;;;;;;4.35;3.10;;;;;;;3.75;92.38;98634.13;1740409;82;21022;-75
2023/01/06 02:09:31;;;;;;;3.05;2.62;;;;;;;3.62;92.94;98634.99;1751695;82;21058;-77
2023/01/06 02:11:58;;;;;;;2.87;2.40;;;;;;;3.53;93.27;98649.38;1752020;81;21306;-78
2023/01/06 02:14:27;;;;;;;2.70;2.10;;;;;;;3.53;93.27;98649.38;1744312;81;21282;-77
2023/01/06 02:17:05;;;;;;;2.92;2.33;;;;;;;3.53;92.91;98661.66;1730718;82;21028;-78
2023/01/06 02:20:07;;;;;;;5.75;3.15;;;;;;;3.53;92.91;98661.66;1751587;82;21014;-77
2023/01/06 02:23:04;;;;;;;2.40;1.98;;;;;;;3.43;93.66;98660.91;1746150;82;21045;-76
2023/01/06 02:26:00;;;;;;;1.72;1.50;;;;;;;3.33;93.75;98670.98;1747153;82;21027;-77
2023/01/06 02:28:58;;;;;;;1.80;1.60;;;;;;;3.39;94.04;98676.13;1721924;80;22045;-74
2023/01/06 02:32:06;;;;;;;2.00;1.80;;;;;;;3.08;93.65;98686.12;1691326;83;20985;-77
2023/01/06 02:35:05;;;;;;;1.72;1.30;;;;;;;3.06;93.50;98695.94;1756815;80;20998;-74
2023/01/06 02:38:04;;;;;;;2.27;1.98;;;;;;;3.06;93.50;98695.94;1699616;83;21079;-76
2023/01/06 02:40:46;;;;;;;2.20;2.00;;;;;;;3.02;93.52;98707.21;1732519;81;21586;-76
2023/01/06 02:43:39;;;;;;;1.80;1.70;;;;;;;2.88;94.18;98709.01;1735674;82;21119;-76
2023/01/06 02:46:27;;;;;;;2.00;1.80;;;;;;;2.94;94.21;98714.49;1698051;83;21114;-76
2023/01/06 02:49:33;;;;;;;2.25;2.05;;;;;;;2.85;94.47;98717.97;1761195;80;21019;-80
2023/01/06 02:52:26;;;;;;;1.72;1.47;;;;;;;2.85;94.47;98717.97;1717561;83;21051;-76
2023/01/06 02:55:09;;;;;;;2.27;1.95;;;;;;;2.88;94.17;98724.26;1733255;82;21008;-79
2023/01/06 02:57:51;;;;;;;2.50;2.30;;;;;;;2.83;93.83;98732.22;1750488;82;21555;-76
2023/01/06 03:00:30;;;;;;;2.40;2.20;;;;;;;2.72;94.64;98735.83;1755257;81;20993;-76
2023/01/06 03:03:00;;;;;;;2.72;2.40;;;;;;;2.77;94.14;98754.59;1753863;82;20998;-75
2023/01/06 03:05:27;;;;;;;3.47;2.22;;;;;;;2.77;94.14;98754.59;1749464;78;20943;-76
2023/01/06 03:07:54;;;;;;;2.55;2.22;;;;;;;2.72;94.76;98759.42;1755550;79;21146;-77
2023/01/06 03:10:21;;;;;;;2.80;2.52;;;;;;;2.63;94.96;98764.23;1734647;80;21144;-77
2023/01/06 03:12:56;;;;;;;3.22;2.55;;;;;;;2.72;95.20;98769.92;1716822;83;21033;-74
2023/01/06 03:15:23;;;;;;;3.58;3.12;;;;;;;2.74;94.60;98784.56;1747182;82;21002;-78
2023/01/06 03:18:50;;;;;;;2.63;2.43;;;;;;;2.65;94.70;98778.84;1813849;79;22459;-77
2023/01/06 03:21:21;;;;;;;2.70;2.50;;;;;;;2.58;93.59;98792.66;1779878;80;21001;-77
2023/01/06 03:23:47;;;;;;;3.37;2.83;;;;;;;2.53;93.37;98790.44;1805495;79;21112;-78
2023/01/06 03:26:14;;;;;;;3.60;3.15;;;;;;;2.53;93.37;98790.44;1807399;79;20978;-75
2023/01/06 03:28:42;;;;;;;3.30;2.98;;;;;;;2.45;93.57;98797.70;1771049;80;21043;-78
2023/01/06 03:31:44;;;;;;;2.77;2.42;;;;;;;2.40;93.91;98798.61;1790109;80;21018;-77
2023/01/06 03:34:51;;;;;;;3.80;3.50;;;;;;;2.48;93.34;98817.58;1790405;79;20946;-75
2023/01/06 03:37:49;;;;;;;3.42;3.12;;;;;;;2.25;92.88;98838.81;1806492;79;21256;-75
2023/01/06 03:40:32;;;;;;;3.25;2.95;;;;;;;2.25;92.88;98838.81;1769008;80;20965;-76
2023/01/06 03:43:27;;;;;;;3.30;3.00;;;;;;;2.32;92.98;98843.05;1756969;81;20979;-76
2023/01/06 03:46:15;;;;;;;4.75;4.25;;;;;;;2.30;92.99;98842.36;1776874;80;21050;-77
2023/01/06 03:48:57;;;;;;;3.85;3.17;;;;;;;2.24;93.38;98857.30;1788867;80;21560;-76
2023/01/06 03:51:53;;;;;;;3.87;3.45;;;;;;;2.30;93.12;98864.64;1786256;80;21201;-76
2023/01/06 03:54:58;;;;;;;4.50;4.10;;;;;;;2.36;93.53;98868.02;1735501;80;21027;-76
2023/01/06 03:57:37;;;;;;;4.22;3.83;;;;;;;2.29;92.38;98882.63;1770827;78;21003;-76
2023/01/06 04:00:13;;;;;;;4.00;3.70;;;;;;;2.29;92.38;98882.63;1754688;81;21012;-75
2023/01/06 04:02:40;;;;;;;4.83;4.33;;;;;;;2.28;92.69;98888.36;1785482;80;21099;-77
2023/01/06 04:05:20;;;;;;;4.53;4.10;;;;;;;2.22;92.68;98897.22;1791434;80;21120;-75
2023/01/06 04:07:48;;;;;;;4.37;3.95;;;;;;;2.19;92.91;98904.06;1737822;81;21023;-77
2023/01/06 04:10:17;;;;;;;4.83;4.42;;;;;;;2.24;92.24;98921.05;1790012;80;21049;-76
2023/01/06 04:12:44;;;;;;;5.53;4.97;;;;;;;2.23;92.42;98921.17;1791782;80;21052;-79
2023/01/06 04:15:18;;;;;;;5.75;5.15;;;;;;;2.19;92.81;98925.03;1791661;80;21080;-74
2023/01/06 04:17:46;;;;;;;5.53;5.03;;;;;;;2.15;92.92;98935.77;1772902;80;21247;-74
2023/01/06 04:20:24;;;;;;;5.95;5.35;;;;;;;2.23;92.37;98940.83;1760288;81;21105;-74
2023/01/06 04:22:53;;;;;;;6.60;6.00;;;;;;;2.23;92.25;98944.77;1749200;80;21060;-74
2023/01/06 04:25:21;;;;;;;8.33;7.15;;;;;;;2.11;91.51;98949.28;1760137;81;21022;-72
2023/01/06 04:27:47;;;;;;;7.47;6.28;;;;;;;2.06;91.57;98959.32;1738669;81;21039;-74
2023/01/06 04:30:14;;;;;;;7.28;6.58;;;;;;;2.11;91.71;98967.62;1729067;83;21296;-75
2023/01/06 04:32:43;;;;;;;8.78;7.72;;;;;;;2.05;91.62;98967.67;1729127;83;21082;-74
2023/01/06 04:35:10;;;;;;;7.97;7.15;;;;;;;1.96;91.90;98973.21;1729533;83;21067;-75
2023/01/06 04:37:38;;;;;;;7.70;6.53;;;;;;;2.03;91.93;98976.61;1758758;81;20998;-76
2023/01/06 04:40:06;;;;;;;7.90;7.10;;;;;;;2.06;91.85;98987.66;1752034;81;21017;-77
2023/01/06 04:43:03;;;;;;;6.62;5.92;;;;;;;2.01;92.16;98996.41;1729397;83;21959;-78
2023/01/06 04:45:02;;;;;;;6.72;5.50;;;;;;;1.98;92.16;99002.39;1754444;81;21001;-77
2023/01/06 04:47:31;;;;;;;7.08;6.37;;;;;;;2.03;91.38;99010.66;1759682;81;21041;-76
2023/01/06 04:49:57;;;;;;;7.00;6.30;;;;;;;2.03;91.57;99019.38;1760018;81;21517;-79
2023/01/06 04:52:24;;;;;;;7.12;6.42;;;;;;;1.93;91.52;99019.80;1734835;81;21540;-77
2023/01/06 04:54:50;;;;;;;6.62;5.80;;;;;;;1.86;91.82;99027.84;1732233;81;21490;-79
2023/01/06 04:57:17;;;;;;;8.98;6.87;;;;;;;1.92;91.61;99033.87;1760013;81;21729;-75
2023/01/06 04:59:45;;;;;;;10.00;8.68;;;;;;;1.95;91.53;99042.75;1762694;81;20998;-75
2023/01/06 05:02:11;;;;;;;8.63;7.72;;;;;;;1.86;91.80;99048.31;1760465;81;21018;-74
2023/01/06 05:04:38;;;;;;;8.70;7.45;;;;;;;1.86;91.68;99056.66;1759718;81;20986;-76
2023/01/06 05:07:04;;;;;;;10.70;8.08;;;;;;;1.93;91.69;99063.86;1759877;81;21678;-77
2023/01/06 05:09:31;;;;;;;9.95;7.95;;;;;;;1.93;92.11;99076.11;1752081;80;20990;-79
2023/01/06 05:11:58;;;;;;;9.28;7.45;;;;;;;1.93;92.35;99082.66;1762885;78;21118;-78
2023/01/06 05:14:26;;;;;;;9.68;8.05;;;;;;;2.03;92.02;99093.19;1732842;80;20946;-78
2023/01/06 05:16:52;;;;;;;8.53;7.37;;;;;;;2.07;91.94;99103.30;1732735;80;21005;-78
2023/01/06 05:19:18;;;;;;;9.30;7.12;;;;;;;2.03;92.07;99112.84;1732148;80;21293;-80
2023/01/06 05:21:45;;;;;;;7.20;6.50;;;;;;;1.94;91.52;99112.66;1732520;80;21052;-77
2023/01/06 05:24:12;;;;;;;7.95;6.97;;;;;;;1.96;91.18;99121.71;1732532;80;21243;-79
2023/01/06 05:26:39;;;;;;;7.75;6.90;;;;;;;1.97;91.54;99127.31;1732557;80;20963;-77
2023/01/06 05:29:05;;;;;;;8.05;6.80;;;;;;;1.89;91.72;99138.44;1739784;78;20949;-78
2023/01/06 05:31:32;;;;;;;6.83;6.15;;;;;;;1.82;91.72;99137.77;1762489;78;21067;-76
2023/01/06 05:33:58;;;;;;;7.83;6.75;;;;;;;1.86;91.48;99137.85;1734876;79;21029;-78
2023/01/06 05:36:25;;;;;;;8.13;6.70;;;;;;;1.87;91.73;99147.36;1759747;78;20937;-75
2023/01/06 05:38:52;;;;;;;7.28;6.40;;;;;;;1.79;92.04;99146.68;1732460;80;20942;-77
2023/01/06 05:41:20;;;;;;;7.05;6.35;;;;;;;1.72;92.00;99139.82;1732378;80;21121;-78
2023/01/06 05:43:46;;;;;;;6.87;6.17;;;;;;;1.79;91.75;99153.71;1732900;81;21495;-76
2023/01/06 05:46:12;;;;;;;10.32;7.97;;;;;;;1.82;91.96;99161.33;1732647;80;21077;-77
2023/01/06 05:48:41;;;;;;;6.85;6.15;;;;;;;1.80;92.19;99169.77;1732382;80;21199;-77
2023/01/06 05:51:10;;;;;;;6.53;5.83;;;;;;;1.85;92.32;99182.02;1733310;80;20926;-77
2023/01/06 05:53:39;;;;;;;7.58;6.58;;;;;;;1.93;92.26;99180.89;1732513;80;21138;-78
2023/01/06 05:56:08;;;;;;;7.35;6.33;;;;;;;1.92;91.72;99189.73;1732152;80;21049;-76
2023/01/06 05:58:35;;;;;;;5.65;4.90;;;;;;;1.81;91.48;99192.39;1732195;80;21068;-76
2023/01/06 06:01:02;;;;;;;5.45;4.95;;;;;;;1.82;91.41;99198.00;1732764;81;21223;-72
2023/01/06 06:03:31;;;;;;;4.87;4.35;;;;;;;1.77;91.43;99203.59;1750082;78;21011;-81
2023/01/06 06:06:04;;;;;;;4.78;4.28;;;;;;;1.77;91.43;99203.59;1732302;80;21092;-78
2023/01/06 06:08:31;;;;;;;4.12;3.72;;;;;;;1.68;90.75;99202.57;1747990;78;21455;-78
2023/01/06 06:11:05;;;;;;;4.62;4.05;;;;;;;1.65;90.90;99213.77;1751569;78;21143;-77
2023/01/06 06:13:33;;;;;;;4.97;4.42;;;;;;;1.57;90.77;99222.23;1731754;80;20970;-77
2023/01/06 06:16:08;;;;;;;4.30;3.58;;;;;;;1.43;91.12;99224.66;1732217;80;20990;-81
2023/01/06 06:18:41;;;;;;;5.03;4.17;;;;;;;1.39;91.34;99233.69;1732444;80;20987;-79
2023/01/06 06:21:05;;;;;;;4.65;4.15;;;;;;;1.43;91.52;99242.12;1752150;78;21068;-81
2023/01/06 06:23:32;;;;;;;5.50;4.47;;;;;;;1.36;91.20;99250.47;1762584;77;21058;-77
2023/01/06 06:25:59;;;;;;;4.35;3.90;;;;;;;1.26;91.37;99254.78;1748885;78;21090;-79
2023/01/06 06:28:25;;;;;;;5.35;4.05;;;;;;;1.31;91.19;99267.03;1759167;78;20910;-77
2023/01/06 06:30:52;;;;;;;4.70;4.30;;;;;;;1.34;91.33;99281.17;1762819;78;20949;-77
2023/01/06 06:33:20;;;;;;;5.12;4.53;;;;;;;1.29;91.35;99285.92;1739707;81;21144;-82
2023/01/06 06:35:57;;;;;;;4.67;3.95;;;;;;;1.25;91.66;99279.27;1740351;80;21054;-83
2023/01/06 06:38:24;;;;;;;4.17;3.77;;;;;;;1.35;91.21;99301.63;1740589;80;21293;-80
2023/01/06 06:40:50;;;;;;;5.75;4.55;;;;;;;1.35;90.97;99301.17;1741957;80;20971;-79
2023/01/06 06:43:17;;;;;;;6.08;4.42;;;;;;;1.29;91.45;99313.88;1741787;80;21014;-81
2023/01/06 06:45:44;;;;;;;4.90;3.60;;;;;;;1.23;90.89;99316.98;1742025;80;21190;-80
2023/01/06 06:48:13;;;;;;;4.20;3.62;;;;;;;1.24;90.57;99316.05;1746373;79;21030;-80
2023/01/06 06:50:39;;;;;;;4.72;3.65;;;;;;;1.20;90.14;99327.22;1742293;80;21038;-77
2023/01/06 06:53:06;;;;;;;5.42;4.87;;;;;;;1.08;91.21;99341.23;1743457;80;21041;-78
2023/01/06 06:55:33;;;;;;;3.80;3.50;;;;;;;1.03;91.15;99339.46;1769167;78;20998;-77
2023/01/06 06:57:59;;;;;;;3.77;3.35;;;;;;;1.07;90.46;99351.35;1754001;78;21418;-78
2023/01/06 07:00:26;;;;;;;3.47;3.15;;;;;;;1.04;91.00;99343.73;1758443;78;20975;-79
2023/01/06 07:02:53;;;;;;;3.95;3.27;;;;;;;0.96;90.22;99366.05;1746625;81;21029;-78
2023/01/06 07:05:20;;;;;;;6.33;3.40;;;;;;;0.94;89.79;99380.21;1758763;78;21030;-81
2023/01/06 07:07:46;;;;;;;4.37;3.90;;;;;;;0.95;89.83;99381.41;1746254;81;21062;-79
2023/01/06 07:10:14;;;;;;;5.58;5.00;;;;;;;0.88;90.73;99389.34;1767695;80;21201;-78
2023/01/06 07:12:41;;;;;;;4.85;4.35;;;;;;;0.77;90.38;99394.54;1761012;79;21039;-81
2023/01/06 07:15:08;;;;;;;5.05;3.98;;;;;;;0.76;90.35;99404.66;1763545;78;21012;-79
2023/01/06 07:17:36;;;;;;;4.35;3.80;;;;;;;0.82;90.39;99409.91;1739409;79;21038;-79
2023/01/06 07:20:03;;;;;;;5.83;4.90;;;;;;;0.75;89.27;99419.52;1763772;80;20991;-78
2023/01/06 07:22:30;;;;;;;5.62;4.97;;;;;;;0.66;90.00;99428.52;1741513;81;21201;-77
2023/01/06 07:24:56;;;;;;;7.65;5.80;;;;;;;0.69;90.19;99436.94;1765628;81;20949;-78
2023/01/06 07:27:22;;;;;;;6.87;6.12;;;;;;;0.75;89.76;99444.81;1765425;78;21075;-80
2023/01/06 07:29:49;;;;;;;10.75;5.95;;;;;;;0.71;90.00;99448.60;1756841;78;21086;-77
2023/01/06 07:32:16;;;;;;;5.45;4.72;;;;;;;0.77;89.32;99463.84;1746575;78;21065;-79
2023/01/06 07:34:44;;;;;;;8.75;7.10;;;;;;;0.80;89.40;99458.88;1735940;80;20987;-79
2023/01/06 07:37:10;;;;;;;15.65;11.70;;;;;;;0.71;88.78;99470.34;1749681;78;21007;-79
2023/01/06 07:39:36;;;;;;;8.25;6.92;;;;;;;0.70;88.82;99469.17;1769942;78;20972;-81
2023/01/06 07:42:03;;;;;;;5.97;5.22;;;;;;;0.71;88.79;99456.45;1791393;78;20986;-81
2023/01/06 07:44:30;;;;;;;6.97;5.62;;;;;;;0.78;88.83;99472.06;1770994;78;21093;-77
2023/01/06 07:46:56;;;;;;;7.37;6.03;;;;;;;0.74;88.82;99487.13;1751075;80;21084;-80
2023/01/06 07:49:23;;;;;;;10.50;8.23;;;;;;;0.65;88.92;99486.97;1738104;81;21064;-79
2023/01/06 07:51:49;;;;;;;11.45;8.85;;;;;;;0.70;89.25;99500.55;1754832;80;20991;-79
2023/01/06 07:54:16;;;;;;;8.85;7.12;;;;;;;0.73;89.13;99512.08;1759351;78;21053;-79
2023/01/06 07:56:45;;;;;;;6.40;5.70;;;;;;;0.68;89.50;99512.42;1755819;80;21073;-77
2023/01/06 07:59:11;;;;;;;12.10;8.58;;;;;;;0.65;88.53;99534.86;1775850;79;21392;-81
2023/01/06 08:01:38;;;;;;;9.83;7.47;;;;;;;0.67;88.30;99532.14;1772888;79;20899;-81
2023/01/06 08:04:06;;;;;;;11.22;9.15;;;;;;;0.57;88.83;99541.94;1755612;81;21282;-80
2023/01/06 08:06:33;;;;;;;10.18;8.30;;;;;;;0.59;88.79;99546.58;1755991;79;21041;-80
2023/01/06 08:09:01;;;;;;;9.50;7.35;;;;;;;0.57;88.02;99555.48;1742240;81;20993;-81
2023/01/06 08:11:27;;;;;;;7.80;6.30;;;;;;;0.45;88.33;99561.59;1753974;81;21214;-81
2023/01/06 08:13:54;;;;;;;7.17;6.00;;;;;;;0.46;89.10;99568.48;1748433;79;21052;-81
2023/01/06 08:16:21;;;;;;;6.10;5.37;;;;;;;0.46;88.75;99573.22;1748360;81;20982;-80
2023/01/06 08:18:48;;;;;;;7.05;6.35;;;;;;;0.36;88.41;99581.36;1745988;79;20985;-79
2023/01/06 08:21:14;;;;;;;12.28;9.45;;;;;;;0.29;88.00;99591.41;1751559;81;21049;-78
2023/01/06 08:23:40;;;;;;;11.60;9.95;;;;;;;0.34;88.14;99602.84;1749539;81;21085;-76
2023/01/06 08:26:12;;;;;;;13.30;10.60;;;;;;;0.35;88.34;99614.98;1745332;81;21004;-81
2023/01/06 08:28:42;;;;;;;16.12;13.93;;;;;;;0.28;88.99;99622.39;1737718;81;20956;-78
2023/01/06 08:31:11;;;;;;;16.05;13.60;;;;;;;0.33;87.98;99629.93;1764133;79;20999;-80
2023/01/06 08:33:37;;;;;;;12.80;10.50;;;;;;;0.39;87.98;99638.65;1762797;79;20996;-81
2023/01/06 08:36:06;;;;;;;11.65;9.45;;;;;;;0.33;88.33;99647.74;1750304;81;21112;-80
2023/01/06 08:38:34;;;;;;;11.65;9.83;;;;;;;0.40;87.82;99648.14;1754157;81;21334;-83
2023/01/06 08:41:00;;;;;;;11.28;9.93;;;;;;;0.46;87.13;99642.48;1724630;81;21021;-82
2023/01/06 08:43:28;;;;;;;12.10;9.58;;;;;;;0.36;86.97;99654.05;1743934;81;21049;-82
2023/01/06 08:45:59;;;;;;;12.25;9.53;;;;;;;0.32;87.51;99656.51;1775018;77;21120;-81
2023/01/06 08:48:26;;;;;;;12.47;10.00;;;;;;;0.47;87.17;99662.95;1773007;78;21179;-77
2023/01/06 08:50:53;;;;;;;11.93;10.15;;;;;;;0.51;86.70;99663.93;1774394;78;20956;-79
2023/01/06 08:53:19;;;;;;;12.58;10.28;;;;;;;0.40;86.96;99653.38;1771476;79;20961;-79
2023/01/06 08:55:46;;;;;;;12.55;9.38;;;;;;;0.36;87.07;99659.27;1774814;78;21007;-79
2023/01/06 08:58:14;;;;;;;11.70;9.30;;;;;;;0.46;87.31;99668.63;1774776;80;21007;-80
2023/01/06 09:00:41;;;;;;;10.32;9.23;;;;;;;0.50;87.30;99666.64;1773851;80;21181;-82
2023/01/06 09:03:08;;;;;;;9.18;7.58;;;;;;;0.45;87.63;99668.75;1734426;80;22062;-81
2023/01/06 09:05:35;;;;;;;8.85;6.85;;;;;;;0.40;87.48;99666.44;1741138;81;21032;-82
2023/01/06 09:08:02;;;;;;;8.48;6.72;;;;;;;0.48;87.46;99669.36;1742058;82;21039;-80
2023/01/06 09:10:29;;;;;;;9.48;7.97;;;;;;;0.51;87.48;99676.17;1746503;81;21038;-81
2023/01/06 09:12:56;;;;;;;8.95;6.50;;;;;;;0.43;88.18;99674.08;1771325;80;21971;-81
2023/01/06 09:15:22;;;;;;;5.92;5.15;;;;;;;0.33;87.38;99674.36;1770761;81;21515;-80
2023/01/06 09:17:50;;;;;;;6.35;5.42;;;;;;;0.38;87.80;99675.69;1755684;81;21005;-81
2023/01/06 09:20:17;;;;;;;6.58;5.95;;;;;;;0.37;87.29;99669.28;1769239;80;21007;-81
2023/01/06 09:22:45;;;;;;;6.72;5.35;;;;;;;0.30;86.70;99679.30;1759811;81;21038;-82
2023/01/06 09:25:11;;;;;;;8.03;4.92;;;;;;;0.15;85.97;99675.11;1755526;78;21089;-80
2023/01/06 09:27:38;;;;;;;6.20;5.50;;;;;;;0.25;86.25;99682.71;1755435;78;20972;-80
2023/01/06 09:30:06;;;;;;;6.35;5.30;;;;;;;0.28;86.41;99686.41;1768567;80;21020;-80
2023/01/06 09:32:34;;;;;;;7.17;5.75;;;;;;;0.24;86.58;99693.27;1767855;80;21045;-80
2023/01/06 09:35:01;;;;;;;7.00;6.05;;;;;;;0.17;85.82;99698.05;1767396;81;21018;-80
2023/01/06 09:37:28;;;;;;;6.65;5.83;;;;;;;0.22;85.92;99702.98;1762829;81;22233;-82
2023/01/06 09:39:56;;;;;;;7.80;6.87;;;;;;;0.18;85.66;99699.25;1737795;80;21029;-78
2023/01/06 09:42:37;;;;;;;8.08;6.30;;;;;;;0.08;85.93;99694.73;1737567;82;21044;-80
2023/01/06 09:45:11;;;;;;;8.25;6.03;;;;;;;-0.02;86.20;99699.73;1756130;81;21042;-80
2023/01/06 09:47:43;;;;;;;9.93;7.78;;;;;;;0.03;85.91;99700.28;1737545;81;21021;-80
2023/01/06 09:50:14;;;;;;;13.25;9.13;;;;;;;0.06;85.82;99710.53;1738219;82;22114;-82
2023/01/06 09:52:54;;;;;;;12.35;9.53;;;;;;;-0.01;86.48;99708.78;1737942;82;21051;-83
2023/01/06 09:55:51;;;;;;;13.70;9.33;;;;;;;-0.02;86.91;99712.34;1750642;81;21002;-82
2023/01/06 09:58:21;;;;;;;10.45;8.03;;;;;;;0.09;86.54;99712.92;1767695;81;20986;-82
2023/01/06 10:00:51;;;;;;;8.38;7.00;;;;;;;0.12;86.36;99726.27;1770450;79;21044;-80
2023/01/06 10:03:25;;;;;;;8.78;6.08;;;;;;;-0.01;85.99;99721.84;1742153;81;21242;-82
2023/01/06 10:06:36;;;;;;;7.75;5.65;;;;;;;-0.08;85.62;99728.88;1738418;82;21036;-80
2023/01/06 10:09:15;;;;;;;9.45;7.45;;;;;;;-0.03;85.07;99739.39;1750892;81;21041;-80
2023/01/06 10:12:00;;;;;;;11.05;6.85;;;;;;;-0.03;84.88;99740.70;1761922;81;21372;-78
2023/01/06 10:14:44;;;;;;;8.90;6.37;;;;;;;-0.16;85.23;99747.66;1751861;81;21049;-80
2023/01/06 10:17:34;;;;;;;;;;;;;;;-0.20;85.24;99757.45;1765597;81;21155;-81
2023/01/06 10:20:21;;;;;;;9.03;6.37;;;;;;;-0.15;85.01;99760.27;1747702;81;20163;-81
2023/01/06 10:22:57;;;;;;;7.35;5.67;;;;;;;-0.22;85.50;99770.25;1737855;81;21016;-73
2023/01/06 10:25:34;;;;;;;7.08;5.85;;;;;;;-0.20;85.19;99770.51;1737217;82;21044;-77
2023/01/06 10:28:24;;;;;;;8.55;6.03;;;;;;;-0.21;84.82;99774.07;1756309;81;21072;-76
2023/01/06 10:30:51;;;;;;;5.65;4.55;;;;;;;-0.30;85.29;99778.57;1767808;81;21225;-77
2023/01/06 10:33:25;;;;;;;4.95;4.05;;;;;;;-0.38;85.22;99789.98;1767396;81;21049;-75
2023/01/06 10:35:54;;;;;;;4.50;3.25;;;;;;;-0.32;84.54;99794.80;1758068;81;21130;-75
2023/01/06 10:38:31;;;;;;;4.83;3.92;;;;;;;-0.28;84.36;99800.20;1736857;81;21078;-74
2023/01/06 10:41:03;;;;;;;4.60;4.08;;;;;;;-0.31;84.58;99803.47;1737422;82;21005;-73
2023/01/06 10:43:29;;;;;;;3.80;3.10;;;;;;;-0.33;84.50;99811.86;1753228;81;21211;-75
2023/01/06 10:45:56;;;;;;;4.00;3.60;;;;;;;-0.22;84.16;99811.55;1739927;79;21053;-76
2023/01/06 10:48:25;;;;;;;3.98;3.27;;;;;;;-0.17;83.68;99814.33;1737523;82;21681;-79
2023/01/06 10:50:52;;;;;;;4.03;3.20;;;;;;;-0.24;83.63;99823.03;1742429;81;21676;-79
2023/01/06 10:53:19;;;;;;;3.25;2.90;;;;;;;-0.29;83.06;99832.48;1766569;81;21474;-78
2023/01/06 10:56:00;;;;;;;3.75;3.10;;;;;;;-0.24;82.04;99838.23;1767165;81;21738;-80
2023/01/06 10:58:35;;;;;;;3.58;2.95;;;;;;;-0.23;82.10;99832.56;1684510;82;21066;-71
2023/01/06 11:01:16;;;;;;;4.92;3.50;;;;;;;-0.28;81.82;99841.14;1740563;81;21000;-73
2023/01/06 11:03:44;;;;;;;5.65;5.12;;;;;;;-0.34;81.79;99835.00;1747221;81;21160;-73
2023/01/06 11:06:27;;;;;;;4.90;4.40;;;;;;;-0.33;80.27;99838.83;1738935;81;21065;-77
2023/01/06 11:08:53;;;;;;;3.90;3.50;;;;;;;-0.43;79.73;99841.63;1737938;81;21110;-75
2023/01/06 11:11:20;;;;;;;3.67;2.75;;;;;;;-0.60;80.08;99837.44;1738114;81;21568;-75
2023/01/06 11:13:50;;;;;;;5.80;3.00;;;;;;;-0.65;80.65;99840.81;1736950;80;21542;-76
2023/01/06 11:16:34;;;;;;;6.58;4.83;;;;;;;-0.57;80.42;99846.87;1737024;81;21070;-75
2023/01/06 11:19:06;;;;;;;2.98;2.30;;;;;;;-0.64;81.15;99847.70;1737512;82;21086;-73
2023/01/06 11:21:45;;;;;;;3.83;2.70;;;;;;;-0.67;79.77;99859.17;1729985;82;21216;-76
2023/01/06 11:24:21;;;;;;;4.17;2.65;;;;;;;-0.65;79.76;99866.91;1743115;81;21041;-76
2023/01/06 11:26:57;;;;;;;3.95;2.30;;;;;;;-0.67;80.22;99855.73;1728629;81;21013;-76
2023/01/06 11:29:34;;;;;;;3.67;2.52;;;;;;;-0.72;80.72;99860.38;1724649;80;21049;-77
2023/01/06 11:32:13;;;;;;;3.70;2.25;;;;;;;-0.79;79.93;99859.92;1736012;82;21018;-74
2023/01/06 11:34:41;;;;;;;2.50;2.10;;;;;;;-0.70;79.90;99859.81;1758219;81;21096;-74
2023/01/06 11:37:08;;;;;;;3.37;2.87;;;;;;;-0.65;79.04;99863.83;1756297;81;21419;-76
2023/01/06 11:39:35;;;;;;;3.80;3.00;;;;;;;-0.71;79.62;99875.12;1755940;81;21033;-76
2023/01/06 11:42:10;;;;;;;3.25;2.35;;;;;;;-0.70;80.48;99882.83;1728143;83;20954;-76
2023/01/06 11:44:41;;;;;;;3.50;2.70;;;;;;;-0.53;80.05;99891.41;1723486;81;21103;-74
2023/01/06 11:48:01;;;;;;;4.25;3.40;;;;;;;-0.49;80.05;99887.20;1727873;83;21190;-76
2023/01/06 11:49:59;;;;;;;4.08;3.10;;;;;;;-0.51;80.17;99899.98;1686171;81;21017;-76
2023/01/06 11:52:31;;;;;;;3.83;2.77;;;;;;;-0.57;80.05;99899.06;1745684;81;21006;-74
2023/01/06 11:55:08;;;;;;;4.22;2.87;;;;;;;-0.53;79.52;99899.24;1733496;81;21052;-75
2023/01/06 11:57:59;;;;;;;4.37;2.83;;;;;;;-0.55;79.46;99902.41;1755824;81;21028;-75
2023/01/06 12:00:45;;;;;;;3.92;2.75;;;;;;;-0.74;79.61;99906.59;1735604;81;21139;-75
2023/01/06 12:03:27;;;;;;;4.83;2.80;;;;;;;-0.90;80.15;99902.29;1727842;83;21036;-76